Time;durP1;ratioP1;P1;durP2;ratioP2;P2;SDS_P1;SDS_P2;PMS_P1;PMS_P2;Temp;Humidity;BMP_temperature;BMP_pressure;BME280_temperature;BME280_humidity;BME280_pressure;Samples;Min_cycle;Max_cycle;Signal;HPM_P1;HPM_P2
2022/10/24 00:00:59;;;;;;;11.40;7.00;;;18.10;85.80;;;;;;10866029;32;20024;-77
2022/10/24 00:07:01;;;;;;;15.80;6.85;;;18.20;85.80;;;;;;10864876;32;20059;-77
2022/10/24 00:13:03;;;;;;;16.35;6.85;;;18.20;85.80;;;;;;10865530;32;20115;-77
2022/10/24 00:19:05;;;;;;;12.82;6.78;;;18.20;85.80;;;;;;10864440;32;20028;-77
2022/10/24 00:25:08;;;;;;;13.00;8.02;;;18.20;85.90;;;;;;10832764;27;207832;-77
2022/10/24 00:31:16;;;;;;;11.20;7.50;;;18.10;86.00;;;;;;10814649;33;20029;-77
2022/10/24 00:37:18;;;;;;;17.77;8.43;;;18.20;86.00;;;;;;10827180;32;20057;-77
2022/10/24 00:43:23;;;;;;;22.17;10.93;;;18.10;86.20;;;;;;10823491;33;20024;-78
2022/10/24 00:49:30;;;;;;;14.90;9.18;;;18.10;86.30;;;;;;10827177;33;20035;-77
2022/10/24 00:55:32;;;;;;;12.80;7.37;;;18.10;86.30;;;;;;10827149;33;20020;-77
2022/10/24 01:01:36;;;;;;;18.95;10.00;;;18.20;86.20;;;;;;10826996;33;20047;-77
2022/10/24 01:08:09;;;;;;;18.20;9.57;;;18.20;86.30;;;;;;10826830;33;20024;-77
2022/10/24 01:14:29;;;;;;;18.87;12.80;;;18.30;86.20;;;;;;10815035;33;20032;-77
2022/10/24 01:20:45;;;;;;;26.00;13.50;;;18.20;86.20;;;;;;10822754;32;20028;-77
2022/10/24 01:27:07;;;;;;;18.20;12.13;;;18.30;86.30;;;;;;10813129;33;20064;-77
2022/10/24 01:33:21;;;;;;;23.25;11.75;;;18.20;86.40;;;;;;10825907;33;20062;-77
2022/10/24 01:39:27;;;;;;;20.02;12.00;;;18.30;86.40;;;;;;10825827;33;20419;-77
2022/10/24 01:45:35;;;;;;;20.67;12.48;;;18.30;86.60;;;;;;10825029;32;20027;-77
2022/10/24 01:51:39;;;;;;;20.55;12.75;;;18.20;86.60;;;;;;10825508;33;20055;-77
2022/10/24 01:57:41;;;;;;;18.40;12.73;;;18.30;86.60;;;;;;10825269;33;20025;-77
2022/10/24 02:03:54;;;;;;;30.70;16.12;;;18.30;86.60;;;;;;10812146;33;20020;-77
2022/10/24 02:10:01;;;;;;;21.58;13.45;;;18.30;86.70;;;;;;10811986;33;20083;-77
2022/10/24 02:16:04;;;;;;;22.75;14.38;;;18.30;86.80;;;;;;10807692;33;20020;-78
2022/10/24 02:22:14;;;;;;;26.05;15.73;;;18.30;86.80;;;;;;10824916;32;20190;-77
2022/10/24 02:28:24;;;;;;;36.10;14.57;;;18.30;87.10;;;;;;10807429;33;20332;-77
2022/10/24 02:34:30;;;;;;;42.67;15.80;;;18.30;87.10;;;;;;10824479;33;20052;-77
2022/10/24 02:40:33;;;;;;;23.62;14.73;;;18.30;87.10;;;;;;10824349;33;20011;-77
2022/10/24 02:46:36;;;;;;;31.30;14.18;;;18.30;87.00;;;;;;10824029;33;20020;-77
2022/10/24 02:52:41;;;;;;;28.02;14.77;;;18.40;87.10;;;;;;10823892;33;20028;-77
2022/10/24 02:58:43;;;;;;;20.85;11.48;;;18.40;87.00;;;;;;10826357;32;20416;-77
2022/10/24 03:04:45;;;;;;;25.62;14.15;;;18.40;87.00;;;;;;10830264;33;20062;-77
2022/10/24 03:10:47;;;;;;;23.45;15.05;;;18.40;87.00;;;;;;10830050;33;20443;-77
2022/10/24 03:16:50;;;;;;;25.60;15.57;;;18.40;87.00;;;;;;10816751;33;20328;-77
2022/10/24 03:22:52;;;;;;;26.40;15.57;;;18.40;86.90;;;;;;10829713;33;20054;-77
2022/10/24 03:28:53;;;;;;;24.12;15.65;;;18.40;87.00;;;;;;10829557;33;20032;-77
2022/10/24 03:34:55;;;;;;;25.60;13.85;;;18.50;87.00;;;;;;10829483;33;20431;-78
2022/10/24 03:40:57;;;;;;;27.98;16.35;;;18.40;87.10;;;;;;10816240;33;20070;-78
2022/10/24 03:46:59;;;;;;;21.55;13.10;;;18.40;87.20;;;;;;10829070;33;20028;-77
2022/10/24 03:53:02;;;;;;;26.80;14.35;;;18.40;87.20;;;;;;10828988;33;20020;-77
2022/10/24 03:59:05;;;;;;;26.33;14.95;;;18.40;87.30;;;;;;10800316;33;20040;-77
2022/10/24 04:05:08;;;;;;;22.55;15.27;;;18.40;87.40;;;;;;10778783;33;20426;-77
2022/10/24 04:11:10;;;;;;;20.12;12.35;;;18.40;87.30;;;;;;10790940;33;20059;-77
2022/10/24 04:17:12;;;;;;;19.80;12.60;;;18.40;87.20;;;;;;10791536;33;20043;-77
2022/10/24 04:23:14;;;;;;;17.73;12.48;;;18.40;87.20;;;;;;10787273;33;20063;-77
2022/10/24 04:29:16;;;;;;;18.50;12.40;;;18.40;87.20;;;;;;10790982;33;20055;-77
2022/10/24 04:35:18;;;;;;;25.23;13.45;;;18.40;87.20;;;;;;10790909;33;20059;-77
2022/10/24 04:41:21;;;;;;;21.83;14.13;;;18.40;87.10;;;;;;10777844;33;20028;-77
2022/10/24 04:47:23;;;;;;;26.48;16.52;;;18.40;87.10;;;;;;10790576;33;20036;-77
2022/10/24 04:53:25;;;;;;;29.95;17.02;;;18.30;87.20;;;;;;10789970;33;20032;-77
2022/10/24 04:59:27;;;;;;;28.62;15.40;;;18.30;87.30;;;;;;10790328;33;20064;-77
2022/10/24 05:05:29;;;;;;;26.10;14.95;;;18.40;87.30;;;;;;10785938;33;20027;-77
2022/10/24 05:11:31;;;;;;;25.17;15.30;;;18.30;87.30;;;;;;10790125;33;20360;-77
2022/10/24 05:17:34;;;;;;;25.25;13.30;;;18.40;87.30;;;;;;10789669;33;20016;-77
2022/10/24 05:23:36;;;;;;;25.42;15.43;;;18.40;87.30;;;;;;10789522;33;20029;-77
2022/10/24 05:29:39;;;;;;;16.85;12.65;;;18.40;87.30;;;;;;10789440;33;20031;-77
2022/10/24 05:35:42;;;;;;;30.70;17.37;;;18.40;87.30;;;;;;10775925;33;20040;-78
2022/10/24 05:41:44;;;;;;;31.60;19.42;;;18.40;87.40;;;;;;10788936;33;20046;-77
2022/10/24 05:47:46;;;;;;;32.42;16.73;;;18.40;87.50;;;;;;10771982;33;20471;-74
2022/10/24 05:53:48;;;;;;;32.90;18.42;;;18.50;87.40;;;;;;10775579;33;20031;-74
2022/10/24 05:59:50;;;;;;;42.60;22.60;;;18.50;87.40;;;;;;10784372;33;20028;-74
2022/10/24 06:05:53;;;;;;;36.35;19.50;;;18.50;87.30;;;;;;10788209;33;20021;-74
2022/10/24 06:11:55;;;;;;;40.30;21.90;;;18.60;87.40;;;;;;10798527;33;20044;-74
2022/10/24 06:18:14;;;;;;;33.67;17.83;;;18.50;87.50;;;;;;10794616;33;20415;-74
2022/10/24 06:24:16;;;;;;;38.47;18.33;;;18.60;87.50;;;;;;10787629;33;20333;-74
2022/10/24 06:30:19;;;;;;;24.05;15.40;;;18.70;87.40;;;;;;10774620;33;20025;-74
2022/10/24 06:36:21;;;;;;;27.50;17.73;;;18.70;87.30;;;;;;10774066;33;20020;-74
2022/10/24 06:42:23;;;;;;;30.92;19.83;;;18.70;87.30;;;;;;10787161;33;20023;-74
2022/10/24 06:48:25;;;;;;;37.60;19.20;;;18.70;87.20;;;;;;10787071;33;20341;-74
2022/10/24 06:54:27;;;;;;;31.58;17.48;;;18.80;87.20;;;;;;10820615;33;20067;-74
2022/10/24 07:00:28;;;;;;;30.55;16.37;;;18.80;87.20;;;;;;10823738;33;20051;-74
2022/10/24 07:06:31;;;;;;;31.30;18.02;;;18.80;87.10;;;;;;10819479;33;20400;-74
2022/10/24 07:12:33;;;;;;;30.85;17.35;;;18.90;87.10;;;;;;10819460;33;20054;-74
2022/10/24 07:18:36;;;;;;;26.40;16.95;;;19.00;87.00;;;;;;10823385;33;20023;-74
2022/10/24 07:24:38;;;;;;;25.33;15.30;;;19.00;86.80;;;;;;10822502;33;20020;-74
2022/10/24 07:30:43;;;;;;;29.65;17.23;;;19.10;86.90;;;;;;10822670;33;20031;-74
2022/10/24 07:36:45;;;;;;;39.03;19.55;;;19.10;86.90;;;;;;10822942;33;20433;-74
2022/10/24 07:42:47;;;;;;;36.55;19.37;;;19.20;86.90;;;;;;10823054;32;20387;-74
2022/10/24 07:49:07;;;;;;;24.30;17.05;;;19.20;86.90;;;;;;10824121;33;20426;-73
2022/10/24 07:55:09;;;;;;;31.02;16.87;;;19.20;86.90;;;;;;10829025;33;20046;-73
2022/10/24 08:01:22;;;;;;;24.90;18.55;;;19.20;87.00;;;;;;10824677;33;20058;-74
2022/10/24 08:07:24;;;;;;;23.42;14.27;;;19.20;87.00;;;;;;10828757;33;20420;-74
2022/10/24 08:13:25;;;;;;;27.20;17.58;;;19.20;87.00;;;;;;10827558;33;20062;-74
2022/10/24 08:19:45;;;;;;;44.20;20.88;;;19.20;87.00;;;;;;10828321;32;20085;-74
2022/10/24 08:25:48;;;;;;;36.38;18.25;;;19.20;87.00;;;;;;10816548;27;20082;-73
2022/10/24 08:31:52;;;;;;;43.85;27.08;;;19.20;87.00;;;;;;10827538;33;20036;-74
2022/10/24 08:37:54;;;;;;;35.63;21.73;;;19.30;86.90;;;;;;10826005;33;20017;-74
2022/10/24 08:44:20;;;;;;;37.58;21.10;;;19.30;87.00;;;;;;10823343;33;20050;-74
2022/10/24 08:50:29;;;;;;;37.58;22.98;;;19.40;86.90;;;;;;10810187;33;20020;-73
2022/10/24 08:56:32;;;;;;;30.10;20.33;;;19.50;86.80;;;;;;10826917;32;20028;-73
2022/10/24 09:02:38;;;;;;;47.42;23.35;;;19.60;86.90;;;;;;10826989;33;20016;-73
2022/10/24 09:08:52;;;;;;;33.30;23.05;;;19.70;86.70;;;;;;10826637;33;20028;-73
2022/10/24 09:14:58;;;;;;;51.95;26.42;;;19.80;86.70;;;;;;10826556;33;20400;-74
2022/10/24 09:21:02;;;;;;;41.35;26.02;;;19.80;86.60;;;;;;10822184;32;20314;-73
2022/10/24 09:27:11;;;;;;;30.75;22.62;;;20.10;86.50;;;;;;10813052;33;20181;-73
2022/10/24 09:33:39;;;;;;;40.67;27.15;;;20.20;86.10;;;;;;10826049;33;20028;-74
2022/10/24 09:39:41;;;;;;;34.47;22.73;;;20.30;86.10;;;;;;10826193;33;20016;-73
2022/10/24 09:46:21;;;;;;;43.45;24.45;;;20.40;86.00;;;;;;10826741;33;20393;-74
2022/10/24 09:52:28;;;;;;;32.53;21.42;;;20.50;85.70;;;;;;10825094;32;20051;-74
2022/10/24 09:58:34;;;;;;;32.60;21.70;;;20.50;85.60;;;;;;10822976;32;20054;-73
2022/10/24 10:04:38;;;;;;;25.43;19.87;;;20.50;85.80;;;;;;10822273;32;20196;-73
2022/10/24 10:10:41;;;;;;;33.15;20.23;;;20.60;85.60;;;;;;10821414;32;20027;-74
2022/10/24 10:16:43;;;;;;;30.25;19.52;;;20.60;85.60;;;;;;10822955;32;20032;-74
2022/10/24 10:22:45;;;;;;;39.78;22.35;;;20.70;85.50;;;;;;10824225;32;20046;-74
2022/10/24 10:29:05;;;;;;;28.73;18.80;;;20.80;85.40;;;;;;10825673;32;20493;-74
2022/10/24 10:35:35;;;;;;;28.90;19.12;;;21.00;85.10;;;;;;10824547;33;20054;-73
2022/10/24 10:41:56;;;;;;;20.17;13.80;;;21.20;84.70;;;;;;10672460;33;20079;-74
2022/10/24 10:48:18;;;;;;;39.63;17.23;;;21.30;84.60;;;;;;10675249;33;20053;-73
2022/10/24 10:54:46;;;;;;;25.45;16.73;;;21.50;84.30;;;;;;10662285;33;20083;-74
2022/10/24 11:01:03;;;;;;;28.20;16.77;;;21.50;84.20;;;;;;10670419;33;20033;-74
2022/10/24 11:07:34;;;;;;;32.00;19.33;;;21.40;84.10;;;;;;10684785;32;20064;-74
2022/10/24 11:13:44;;;;;;;28.42;16.70;;;21.30;83.80;;;;;;10795997;32;20240;-74
2022/10/24 11:20:08;;;;;;;25.05;17.70;;;21.30;84.10;;;;;;10824083;32;20360;-75
2022/10/24 11:26:29;;;;;;;32.13;18.00;;;21.30;84.10;;;;;;10825271;32;20351;-74
2022/10/24 11:33:01;;;;;;;30.20;17.85;;;21.40;84.00;;;;;;10829568;33;20359;-74
2022/10/24 11:39:18;;;;;;;26.17;18.25;;;21.40;83.90;;;;;;10824649;33;20023;-75
2022/10/24 11:45:34;;;;;;;47.75;21.85;;;21.50;83.70;;;;;;10829406;33;20347;-74
2022/10/24 11:51:59;;;;;;;23.20;16.95;;;21.70;83.60;;;;;;10829172;33;20027;-74
2022/10/24 11:58:04;;;;;;;23.55;16.15;;;21.80;83.10;;;;;;10828780;33;20036;-72
2022/10/24 12:04:40;;;;;;;23.20;15.32;;;22.00;82.70;;;;;;10827224;33;20348;-73
2022/10/24 12:10:57;;;;;;;25.40;15.18;;;22.10;82.20;;;;;;10828671;33;20058;-72
2022/10/24 12:17:37;;;;;;;20.05;12.32;;;22.30;82.00;;;;;;10815613;32;20042;-73
2022/10/24 12:23:41;;;;;;;20.73;16.67;;;22.30;81.40;;;;;;10830947;32;20040;-72
2022/10/24 12:29:44;;;;;;;18.20;12.02;;;22.30;81.10;;;;;;10829045;32;20054;-73
2022/10/24 12:35:50;;;;;;;17.20;12.13;;;22.30;80.70;;;;;;10829224;32;20062;-72
2022/10/24 12:41:54;;;;;;;16.00;10.93;;;22.30;80.80;;;;;;10830243;32;20024;-75
2022/10/24 12:48:34;;;;;;;20.17;13.52;;;22.30;80.50;;;;;;10825605;33;20062;-75
2022/10/24 12:54:41;;;;;;;15.50;12.75;;;22.40;80.50;;;;;;10829787;32;20403;-77
2022/10/24 13:01:22;;;;;;;16.80;11.80;;;22.50;79.80;;;;;;10815823;33;20039;-77
2022/10/24 13:07:58;;;;;;;15.48;10.98;;;22.40;79.80;;;;;;10813791;33;20051;-77
2022/10/24 13:14:38;;;;;;;17.30;10.75;;;22.40;79.20;;;;;;10826894;33;20422;-77
2022/10/24 13:20:44;;;;;;;15.35;11.70;;;22.50;79.20;;;;;;10822565;32;20050;-77
2022/10/24 13:27:12;;;;;;;15.40;11.63;;;22.50;78.90;;;;;;10826552;33;20043;-77
2022/10/24 13:33:32;;;;;;;16.87;11.52;;;22.50;79.20;;;;;;10828021;32;20047;-77
2022/10/24 13:39:37;;;;;;;21.02;17.00;;;22.50;79.00;;;;;;10826339;32;20051;-77
2022/10/24 13:45:51;;;;;;;22.50;13.48;;;22.60;79.00;;;;;;10822467;32;20107;-77
2022/10/24 13:51:59;;;;;;;20.88;15.20;;;22.60;78.80;;;;;;10827503;32;20016;-77
2022/10/24 13:58:50;;;;;;;15.77;12.52;;;22.60;78.70;;;;;;10827256;32;20066;-77
2022/10/24 14:04:53;;;;;;;22.27;13.77;;;22.70;78.70;;;;;;10786899;32;20021;-77
2022/10/24 14:10:56;;;;;;;20.60;13.88;;;22.60;79.20;;;;;;10685594;33;20037;-77
2022/10/24 14:17:27;;;;;;;17.95;13.75;;;22.60;79.10;;;;;;10675480;33;20060;-74
2022/10/24 14:23:34;;;;;;;15.13;11.85;;;22.70;79.10;;;;;;10671188;33;20215;-74
2022/10/24 14:29:37;;;;;;;20.40;12.00;;;22.70;79.20;;;;;;10671207;33;20059;-73
2022/10/24 14:35:40;;;;;;;16.50;10.70;;;22.50;79.50;;;;;;10681535;33;20406;-74
2022/10/24 14:41:42;;;;;;;16.50;11.45;;;22.50;79.60;;;;;;10824558;33;20020;-74
2022/10/24 14:47:51;;;;;;;15.77;11.55;;;22.50;79.60;;;;;;10824586;32;20027;-74
2022/10/24 14:53:54;;;;;;;13.50;9.35;;;22.50;79.40;;;;;;10825822;32;20043;-74
2022/10/24 15:00:05;;;;;;;13.70;8.90;;;22.50;79.30;;;;;;10826677;33;20340;-74
2022/10/24 15:06:11;;;;;;;15.20;8.05;;;22.50;78.90;;;;;;10830404;33;20020;-77
2022/10/24 15:12:13;;;;;;;24.95;9.75;;;22.50;79.00;;;;;;10827279;33;20054;-77
2022/10/24 15:18:42;;;;;;;18.23;12.73;;;22.50;78.80;;;;;;10829848;33;20404;-76
2022/10/24 15:24:50;;;;;;;12.45;7.43;;;22.40;78.90;;;;;;10827184;33;20059;-76
2022/10/24 15:30:52;;;;;;;10.77;8.05;;;22.30;79.30;;;;;;10829789;33;20388;-77
2022/10/24 15:36:56;;;;;;;13.57;7.62;;;22.10;79.80;;;;;;10812627;33;20047;-77
2022/10/24 15:42:58;;;;;;;25.35;9.68;;;21.90;80.10;;;;;;10828807;33;20047;-77
2022/10/24 15:49:01;;;;;;;18.45;9.10;;;21.80;80.40;;;;;;10829314;33;20032;-78
2022/10/24 15:55:03;;;;;;;12.98;9.43;;;21.80;80.60;;;;;;10828835;33;20047;-78
2022/10/24 16:01:06;;;;;;;15.15;9.95;;;21.60;81.00;;;;;;10827283;32;20077;-77
2022/10/24 16:07:10;;;;;;;11.25;8.60;;;21.50;81.30;;;;;;10827019;32;20376;-78
2022/10/24 16:13:13;;;;;;;12.65;9.25;;;21.50;81.40;;;;;;10827949;33;20047;-78
2022/10/24 16:19:16;;;;;;;13.18;8.77;;;21.40;81.60;;;;;;10828513;32;20043;-78
2022/10/24 16:25:27;;;;;;;13.77;10.45;;;21.30;81.80;;;;;;10830399;27;20036;-78
2022/10/24 16:31:29;;;;;;;10.10;7.90;;;21.30;81.80;;;;;;10823349;33;20476;-74
2022/10/24 16:37:32;;;;;;;10.15;8.13;;;21.30;81.90;;;;;;10826710;32;20028;-74
2022/10/24 16:43:34;;;;;;;15.35;10.38;;;21.20;82.00;;;;;;10824846;33;20050;-74
2022/10/24 16:49:36;;;;;;;12.85;6.78;;;21.10;82.10;;;;;;10827605;32;20028;-74
2022/10/24 16:55:38;;;;;;;10.90;8.63;;;21.10;82.30;;;;;;10827184;33;20051;-74
2022/10/24 17:01:40;;;;;;;10.45;7.57;;;21.00;82.30;;;;;;10826992;33;20059;-74
2022/10/24 17:07:56;;;;;;;9.98;7.95;;;21.00;82.30;;;;;;10822447;33;20331;-74
2022/10/24 17:13:59;;;;;;;15.40;8.98;;;21.00;82.30;;;;;;10826063;33;20078;-74
2022/10/24 17:20:03;;;;;;;19.45;10.90;;;21.00;82.40;;;;;;10825626;32;20043;-74
2022/10/24 17:26:14;;;;;;;13.02;9.40;;;20.90;82.50;;;;;;10821995;32;20035;-74
2022/10/24 17:32:16;;;;;;;13.75;10.73;;;20.90;82.60;;;;;;10823768;33;20059;-74
2022/10/24 17:38:30;;;;;;;10.52;8.55;;;20.80;82.70;;;;;;10822257;33;20055;-74
2022/10/24 17:44:33;;;;;;;15.07;10.35;;;20.80;82.70;;;;;;10827312;33;20035;-77
2022/10/24 17:50:36;;;;;;;21.75;10.75;;;20.80;82.80;;;;;;10825858;33;20028;-77
2022/10/24 17:56:51;;;;;;;20.88;10.25;;;20.80;82.80;;;;;;10824771;33;20054;-78
2022/10/24 18:02:53;;;;;;;20.95;12.50;;;20.70;82.90;;;;;;10824894;33;20058;-77
2022/10/24 18:08:56;;;;;;;15.07;9.80;;;20.70;83.20;;;;;;10825328;33;20359;-77
2022/10/24 18:14:58;;;;;;;16.65;10.18;;;20.60;83.20;;;;;;10825073;33;20024;-77
2022/10/24 18:21:12;;;;;;;11.98;9.65;;;20.50;83.40;;;;;;10824868;32;20032;-77
2022/10/24 18:27:24;;;;;;;15.20;11.38;;;20.50;83.60;;;;;;10824942;32;20104;-77
2022/10/24 18:33:26;;;;;;;14.13;9.45;;;20.40;83.80;;;;;;10825306;33;20036;-77
2022/10/24 18:39:29;;;;;;;22.05;11.05;;;20.30;83.90;;;;;;10825126;33;20059;-77
2022/10/24 18:45:50;;;;;;;19.02;11.07;;;20.30;83.90;;;;;;10823475;33;20054;-77
2022/10/24 18:52:01;;;;;;;20.52;12.75;;;20.30;83.90;;;;;;10823528;33;20392;-77
2022/10/24 18:58:09;;;;;;;15.93;9.02;;;20.30;84.00;;;;;;10784665;33;20047;-77
2022/10/24 19:04:32;;;;;;;18.17;9.37;;;20.30;83.90;;;;;;10816980;33;20047;-77
2022/10/24 19:10:35;;;;;;;16.02;11.82;;;20.30;83.80;;;;;;10822210;33;20143;-77
2022/10/24 19:16:40;;;;;;;13.52;10.52;;;20.30;83.90;;;;;;10873974;32;20024;-77
2022/10/24 19:22:42;;;;;;;15.80;11.12;;;20.30;84.10;;;;;;10823062;33;20047;-77
2022/10/24 19:28:45;;;;;;;15.90;10.63;;;20.30;84.20;;;;;;10823156;32;20042;-77
2022/10/24 19:34:47;;;;;;;15.20;9.73;;;20.30;84.20;;;;;;10823257;33;20345;-76
2022/10/24 19:40:51;;;;;;;17.90;11.55;;;20.30;84.20;;;;;;10825027;32;20020;-76
2022/10/24 19:46:53;;;;;;;18.73;10.85;;;20.20;84.20;;;;;;10820980;32;20104;-77
2022/10/24 19:53:04;;;;;;;20.90;11.90;;;20.20;84.30;;;;;;10776813;32;20344;-76
2022/10/24 19:59:08;;;;;;;16.08;12.60;;;20.10;84.50;;;;;;10791977;33;20020;-77
2022/10/24 20:05:10;;;;;;;19.42;13.55;;;20.00;84.60;;;;;;10778704;33;20044;-76
2022/10/24 20:11:15;;;;;;;17.73;11.27;;;19.90;84.80;;;;;;10779617;32;20020;-76
2022/10/24 20:17:20;;;;;;;14.48;12.00;;;19.90;84.90;;;;;;10823992;33;20032;-76
2022/10/24 20:23:23;;;;;;;16.02;11.88;;;19.90;84.90;;;;;;10820756;32;20063;-76
2022/10/24 20:29:25;;;;;;;17.80;12.75;;;19.90;84.80;;;;;;10796935;32;20024;-76
2022/10/24 20:35:28;;;;;;;18.10;11.45;;;19.90;84.90;;;;;;10824805;33;20024;-76
2022/10/24 20:41:30;;;;;;;13.88;10.82;;;19.90;84.80;;;;;;10814727;33;20081;-76
2022/10/24 20:47:32;;;;;;;18.12;13.27;;;19.90;84.80;;;;;;10827831;33;20016;-76
2022/10/24 20:53:34;;;;;;;16.65;10.82;;;19.90;85.00;;;;;;10826325;32;20020;-76
2022/10/24 20:59:37;;;;;;;17.80;12.70;;;19.90;85.00;;;;;;10827521;33;20020;-76
2022/10/24 21:06:13;;;;;;;17.95;10.93;;;19.80;85.00;;;;;;10814197;33;20047;-76
2022/10/24 21:12:15;;;;;;;18.05;11.88;;;19.80;85.10;;;;;;10813829;33;20419;-75
2022/10/24 21:18:17;;;;;;;15.20;10.65;;;19.80;85.10;;;;;;10826672;33;20054;-76
2022/10/24 21:24:19;;;;;;;12.98;8.85;;;19.80;85.00;;;;;;10826703;33;20024;-76
2022/10/24 21:30:21;;;;;;;17.73;10.93;;;19.80;85.00;;;;;;10822325;33;20050;-76
2022/10/24 21:36:29;;;;;;;14.13;10.38;;;19.80;85.10;;;;;;10826454;33;20016;-76
2022/10/24 21:42:32;;;;;;;15.43;9.53;;;19.80;85.10;;;;;;10915285;32;20154;-76
2022/10/24 21:48:34;;;;;;;15.48;11.23;;;19.70;85.00;;;;;;10902038;32;20046;-75
2022/10/24 21:54:37;;;;;;;16.85;11.60;;;19.80;85.00;;;;;;10902162;32;20299;-75
2022/10/24 22:00:39;;;;;;;17.25;10.32;;;19.70;85.00;;;;;;10901287;32;20347;-75
2022/10/24 22:06:42;;;;;;;15.32;10.60;;;19.80;85.00;;;;;;10901447;32;20363;-76
2022/10/24 22:12:44;;;;;;;15.18;11.12;;;19.70;85.00;;;;;;10850054;32;20028;-76
2022/10/24 22:18:46;;;;;;;20.23;11.32;;;19.70;85.00;;;;;;10825234;33;20011;-75
2022/10/24 22:24:48;;;;;;;25.33;10.73;;;19.70;85.00;;;;;;10821711;33;20028;-76
2022/10/24 22:30:51;;;;;;;15.38;11.40;;;19.70;85.00;;;;;;10824209;33;20063;-76
2022/10/24 22:37:11;;;;;;;15.20;11.23;;;19.70;85.10;;;;;;10824863;33;20384;-76
2022/10/24 22:43:14;;;;;;;17.35;11.80;;;19.70;85.00;;;;;;10824698;33;20016;-76
2022/10/24 22:49:16;;;;;;;16.25;11.57;;;19.80;85.00;;;;;;10820543;33;20058;-76
2022/10/24 22:55:36;;;;;;;12.50;10.02;;;19.80;85.00;;;;;;10824380;33;20046;-76
2022/10/24 23:01:58;;;;;;;18.77;12.18;;;19.70;85.00;;;;;;10820091;33;20035;-75
2022/10/24 23:08:04;;;;;;;16.67;10.55;;;19.70;85.30;;;;;;10824077;33;20056;-76
2022/10/24 23:14:15;;;;;;;15.57;12.50;;;19.60;85.40;;;;;;10824408;32;20392;-75
2022/10/24 23:20:46;;;;;;;17.42;11.55;;;19.60;85.40;;;;;;10813056;33;20054;-75
2022/10/24 23:27:05;;;;;;;14.10;9.90;;;19.60;85.30;;;;;;10825968;32;20415;-76
2022/10/24 23:33:09;;;;;;;;;;;19.60;85.30;;;;;;10816910;33;20055;-75
2022/10/24 23:39:14;;;;;;;12.77;9.82;;;19.60;85.30;;;;;;10829624;33;19985;-76
2022/10/24 23:45:18;;;;;;;14.73;10.15;;;19.60;85.20;;;;;;10829595;33;20317;-75
2022/10/24 23:51:40;;;;;;;13.77;10.48;;;19.60;85.30;;;;;;10829379;33;20067;-76
2022/10/24 23:57:42;;;;;;;14.77;10.80;;;19.60;85.30;;;;;;10825162;33;20040;-76
